sensor_id;sensor_type;location;lat;lon;timestamp;temperature;humidity
49052;DHT22;34866;48.670;18.260;2023-02-12T00:01:36;51.60;2227.20
49052;DHT22;34866;48.670;18.260;2023-02-12T00:04:02;51.70;2227.20
49052;DHT22;34866;48.670;18.260;2023-02-12T00:06:27;51.60;2227.20
49052;DHT22;34866;48.670;18.260;2023-02-12T00:08:54;51.80;2227.20
49052;DHT22;34866;48.670;18.260;2023-02-12T00:11:28;51.70;2227.20
49052;DHT22;34866;48.670;18.260;2023-02-12T00:13:54;51.80;2227.20
49052;DHT22;34866;48.670;18.260;2023-02-12T00:16:23;51.60;2227.20
49052;DHT22;34866;48.670;18.260;2023-02-12T00:18:52;51.40;2227.20
49052;DHT22;34866;48.670;18.260;2023-02-12T00:21:18;51.30;2227.20
49052;DHT22;34866;48.670;18.260;2023-02-12T00:23:44;51.20;2227.20
49052;DHT22;34866;48.670;18.260;2023-02-12T00:26:17;51.20;2227.20
49052;DHT22;34866;48.670;18.260;2023-02-12T00:28:43;51.20;2227.20
49052;DHT22;34866;48.670;18.260;2023-02-12T00:31:15;51.40;2227.20
49052;DHT22;34866;48.670;18.260;2023-02-12T00:33:41;51.30;2227.20
49052;DHT22;34866;48.670;18.260;2023-02-12T00:36:08;51.40;2227.20
49052;DHT22;34866;48.670;18.260;2023-02-12T00:38:34;51.40;2227.20
49052;DHT22;34866;48.670;18.260;2023-02-12T00:41:00;51.30;2227.20
49052;DHT22;34866;48.670;18.260;2023-02-12T00:43:26;51.30;2227.20
49052;DHT22;34866;48.670;18.260;2023-02-12T00:45:52;51.20;2227.20
49052;DHT22;34866;48.670;18.260;2023-02-12T00:48:31;51.20;2227.20
49052;DHT22;34866;48.670;18.260;2023-02-12T00:50:57;26.50;2201.60
49052;DHT22;34866;48.670;18.260;2023-02-12T00:53:23;51.20;2227.20
49052;DHT22;34866;48.670;18.260;2023-02-12T00:55:48;51.30;2227.20
49052;DHT22;34866;48.670;18.260;2023-02-12T00:58:14;51.20;2227.20
49052;DHT22;34866;48.670;18.260;2023-02-12T01:00:42;26.50;2201.60
49052;DHT22;34866;48.670;18.260;2023-02-12T01:03:07;26.50;2201.60
49052;DHT22;34866;48.670;18.260;2023-02-12T01:05:33;26.40;2201.60
49052;DHT22;34866;48.670;18.260;2023-02-12T01:07:59;26.50;2201.60
49052;DHT22;34866;48.670;18.260;2023-02-12T01:10:25;51.40;2227.20
49052;DHT22;34866;48.670;18.260;2023-02-12T01:12:50;51.60;2227.20
49052;DHT22;34866;48.670;18.260;2023-02-12T01:15:17;51.80;2227.20
49052;DHT22;34866;48.670;18.260;2023-02-12T01:17:43;52.00;2227.20
49052;DHT22;34866;48.670;18.260;2023-02-12T01:20:11;51.90;2227.20
49052;DHT22;34866;48.670;18.260;2023-02-12T01:22:37;52.00;2227.20
49052;DHT22;34866;48.670;18.260;2023-02-12T01:25:04;52.10;2227.20
49052;DHT22;34866;48.670;18.260;2023-02-12T01:27:32;52.00;2227.20
49052;DHT22;34866;48.670;18.260;2023-02-12T01:29:57;52.00;2227.20
49052;DHT22;34866;48.670;18.260;2023-02-12T01:32:23;52.00;2227.20
49052;DHT22;34866;48.670;18.260;2023-02-12T01:34:49;51.90;2227.20
49052;DHT22;34866;48.670;18.260;2023-02-12T01:37:15;51.90;2227.20
49052;DHT22;34866;48.670;18.260;2023-02-12T01:39:40;51.90;2227.20
49052;DHT22;34866;48.670;18.260;2023-02-12T01:42:06;52.00;2227.20
49052;DHT22;34866;48.670;18.260;2023-02-12T01:44:33;51.90;2227.20
49052;DHT22;34866;48.670;18.260;2023-02-12T01:47:04;52.00;2227.20
49052;DHT22;34866;48.670;18.260;2023-02-12T01:49:36;52.00;2227.20
49052;DHT22;34866;48.670;18.260;2023-02-12T01:52:19;52.10;2227.20
49052;DHT22;34866;48.670;18.260;2023-02-12T01:54:49;52.10;2227.20
49052;DHT22;34866;48.670;18.260;2023-02-12T01:57:16;52.00;2227.20
49052;DHT22;34866;48.670;18.260;2023-02-12T01:59:44;51.90;2227.20
49052;DHT22;34866;48.670;18.260;2023-02-12T02:02:11;51.90;2227.20
49052;DHT22;34866;48.670;18.260;2023-02-12T02:04:41;51.80;2227.20
49052;DHT22;34866;48.670;18.260;2023-02-12T02:07:09;51.70;2227.20
49052;DHT22;34866;48.670;18.260;2023-02-12T02:09:37;51.80;2227.20
49052;DHT22;34866;48.670;18.260;2023-02-12T02:12:03;51.70;2227.20
49052;DHT22;34866;48.670;18.260;2023-02-12T02:14:51;51.70;2227.20
49052;DHT22;34866;48.670;18.260;2023-02-12T02:17:32;51.70;2227.20
49052;DHT22;34866;48.670;18.260;2023-02-12T02:38:52;51.70;2227.20
49052;DHT22;34866;48.670;18.260;2023-02-12T02:44:12;51.60;2227.20
49052;DHT22;34866;48.670;18.260;2023-02-12T02:46:44;51.50;2227.20
49052;DHT22;34866;48.670;18.260;2023-02-12T02:49:23;51.60;2227.20
49052;DHT22;34866;48.670;18.260;2023-02-12T02:51:54;51.50;2227.20
49052;DHT22;34866;48.670;18.260;2023-02-12T02:54:29;51.40;2227.20
49052;DHT22;34866;48.670;18.260;2023-02-12T02:57:09;51.30;2227.20
49052;DHT22;34866;48.670;18.260;2023-02-12T02:59:41;51.30;2227.20
49052;DHT22;34866;48.670;18.260;2023-02-12T03:02:13;51.30;2227.20
49052;DHT22;34866;48.670;18.260;2023-02-12T03:05:17;51.20;2227.20
49052;DHT22;34866;48.670;18.260;2023-02-12T03:07:58;26.50;2201.60
49052;DHT22;34866;48.670;18.260;2023-02-12T03:10:29;26.50;2201.60
49052;DHT22;34866;48.670;18.260;2023-02-12T03:15:36;51.20;2227.20
49052;DHT22;34866;48.670;18.260;2023-02-12T03:18:09;51.30;2201.60
49052;DHT22;34866;48.670;18.260;2023-02-12T03:20:42;51.40;2073.60
49052;DHT22;34866;48.670;18.260;2023-02-12T03:23:11;51.40;2073.60
49052;DHT22;34866;48.670;18.260;2023-02-12T03:28:19;26.50;2150.40
49052;DHT22;34866;48.670;18.260;2023-02-12T03:31:14;26.50;2201.60
49052;DHT22;34866;48.670;18.260;2023-02-12T03:36:52;26.50;2176.00
49052;DHT22;34866;48.670;18.260;2023-02-12T03:45:25;51.40;2227.20
49052;DHT22;34866;48.670;18.260;2023-02-12T03:48:07;51.40;2227.20
49052;DHT22;34866;48.670;18.260;2023-02-12T03:50:53;51.20;2124.80
49052;DHT22;34866;48.670;18.260;2023-02-12T03:53:21;26.50;2201.60
49052;DHT22;34866;48.670;18.260;2023-02-12T03:55:51;26.50;2201.60
49052;DHT22;34866;48.670;18.260;2023-02-12T03:58:21;26.50;2201.60
49052;DHT22;34866;48.670;18.260;2023-02-12T04:00:49;51.40;2227.20
49052;DHT22;34866;48.670;18.260;2023-02-12T04:03:15;51.70;2227.20
49052;DHT22;34866;48.670;18.260;2023-02-12T04:05:40;51.20;2201.60
49052;DHT22;34866;48.670;18.260;2023-02-12T04:08:08;51.70;2150.40
49052;DHT22;34866;48.670;18.260;2023-02-12T04:10:43;51.50;2227.20
49052;DHT22;34866;48.670;18.260;2023-02-12T04:16:16;26.50;2201.60
49052;DHT22;34866;48.670;18.260;2023-02-12T04:18:46;51.30;1971.20
49052;DHT22;34866;48.670;18.260;2023-02-12T04:34:45;51.40;2227.20
49052;DHT22;34866;48.670;18.260;2023-02-12T04:37:27;51.30;2227.20
49052;DHT22;34866;48.670;18.260;2023-02-12T04:39:55;51.30;2227.20
49052;DHT22;34866;48.670;18.260;2023-02-12T04:42:22;26.50;2022.40
49052;DHT22;34866;48.670;18.260;2023-02-12T04:44:48;51.20;2073.60
49052;DHT22;34866;48.670;18.260;2023-02-12T04:47:15;51.20;2176.00
49052;DHT22;34866;48.670;18.260;2023-02-12T04:49:41;26.50;2022.40
49052;DHT22;34866;48.670;18.260;2023-02-12T04:52:07;51.20;2227.20
49052;DHT22;34866;48.670;18.260;2023-02-12T04:54:33;26.50;2201.60
49052;DHT22;34866;48.670;18.260;2023-02-12T04:56:59;26.50;2201.60
49052;DHT22;34866;48.670;18.260;2023-02-12T04:59:24;26.50;2201.60
49052;DHT22;34866;48.670;18.260;2023-02-12T05:01:50;26.50;2201.60
49052;DHT22;34866;48.670;18.260;2023-02-12T05:04:17;26.40;2201.60
49052;DHT22;34866;48.670;18.260;2023-02-12T05:06:44;26.50;2201.60
49052;DHT22;34866;48.670;18.260;2023-02-12T05:09:20;26.40;2201.60
49052;DHT22;34866;48.670;18.260;2023-02-12T05:11:46;26.50;2201.60
49052;DHT22;34866;48.670;18.260;2023-02-12T05:14:12;26.50;2201.60
49052;DHT22;34866;48.670;18.260;2023-02-12T05:16:39;51.20;2227.20
49052;DHT22;34866;48.670;18.260;2023-02-12T05:19:05;26.50;2201.60
49052;DHT22;34866;48.670;18.260;2023-02-12T05:21:34;51.20;2227.20
49052;DHT22;34866;48.670;18.260;2023-02-12T05:24:06;26.50;2201.60
49052;DHT22;34866;48.670;18.260;2023-02-12T05:26:32;51.30;2227.20
49052;DHT22;34866;48.670;18.260;2023-02-12T05:28:59;26.50;2201.60
49052;DHT22;34866;48.670;18.260;2023-02-12T05:31:25;25.90;2201.60
49052;DHT22;34866;48.670;18.260;2023-02-12T05:33:52;51.40;2227.20
49052;DHT22;34866;48.670;18.260;2023-02-12T05:36:21;26.50;2201.60
49052;DHT22;34866;48.670;18.260;2023-02-12T05:38:51;26.50;2201.60
49052;DHT22;34866;48.670;18.260;2023-02-12T05:41:23;51.20;2227.20
49052;DHT22;34866;48.670;18.260;2023-02-12T05:43:50;26.30;2201.60
49052;DHT22;34866;48.670;18.260;2023-02-12T05:46:17;51.60;2227.20
49052;DHT22;34866;48.670;18.260;2023-02-12T05:48:43;26.50;2201.60
49052;DHT22;34866;48.670;18.260;2023-02-12T05:51:17;26.50;2201.60
49052;DHT22;34866;48.670;18.260;2023-02-12T05:53:44;51.20;2227.20
49052;DHT22;34866;48.670;18.260;2023-02-12T05:56:23;51.30;2227.20
49052;DHT22;34866;48.670;18.260;2023-02-12T05:58:55;51.20;2227.20
49052;DHT22;34866;48.670;18.260;2023-02-12T06:01:25;51.30;2227.20
49052;DHT22;34866;48.670;18.260;2023-02-12T06:03:52;51.20;2227.20
49052;DHT22;34866;48.670;18.260;2023-02-12T06:06:17;51.20;2227.20
49052;DHT22;34866;48.670;18.260;2023-02-12T06:08:46;26.50;2201.60
49052;DHT22;34866;48.670;18.260;2023-02-12T06:11:13;26.50;2201.60
49052;DHT22;34866;48.670;18.260;2023-02-12T06:13:39;51.20;2227.20
49052;DHT22;34866;48.670;18.260;2023-02-12T06:16:05;26.50;2201.60
49052;DHT22;34866;48.670;18.260;2023-02-12T06:18:34;26.40;2201.60
49052;DHT22;34866;48.670;18.260;2023-02-12T06:21:04;26.50;2201.60
49052;DHT22;34866;48.670;18.260;2023-02-12T06:23:30;26.40;2201.60
49052;DHT22;34866;48.670;18.260;2023-02-12T06:25:57;26.30;2201.60
49052;DHT22;34866;48.670;18.260;2023-02-12T06:28:25;26.10;2201.60
49052;DHT22;34866;48.670;18.260;2023-02-12T06:30:52;26.10;2201.60
49052;DHT22;34866;48.670;18.260;2023-02-12T06:33:19;26.10;2201.60
49052;DHT22;34866;48.670;18.260;2023-02-12T06:35:46;26.30;2201.60
49052;DHT22;34866;48.670;18.260;2023-02-12T06:38:13;26.40;2201.60
49052;DHT22;34866;48.670;18.260;2023-02-12T06:40:41;26.50;2201.60
49052;DHT22;34866;48.670;18.260;2023-02-12T06:43:08;26.50;2201.60
49052;DHT22;34866;48.670;18.260;2023-02-12T06:45:34;26.40;2201.60
49052;DHT22;34866;48.670;18.260;2023-02-12T06:48:00;26.40;2201.60
49052;DHT22;34866;48.670;18.260;2023-02-12T06:50:26;26.30;2201.60
49052;DHT22;34866;48.670;18.260;2023-02-12T06:52:53;26.30;2201.60
49052;DHT22;34866;48.670;18.260;2023-02-12T06:55:19;51.20;2227.20
49052;DHT22;34866;48.670;18.260;2023-02-12T06:57:45;51.20;2227.20
49052;DHT22;34866;48.670;18.260;2023-02-12T07:00:11;51.40;2227.20
49052;DHT22;34866;48.670;18.260;2023-02-12T07:02:37;51.40;2227.20
49052;DHT22;34866;48.670;18.260;2023-02-12T07:05:03;51.50;2227.20
49052;DHT22;34866;48.670;18.260;2023-02-12T07:07:28;51.60;2227.20
49052;DHT22;34866;48.670;18.260;2023-02-12T07:09:54;51.70;2227.20
49052;DHT22;34866;48.670;18.260;2023-02-12T07:12:20;51.80;2227.20
49052;DHT22;34866;48.670;18.260;2023-02-12T07:14:45;52.10;2227.20
49052;DHT22;34866;48.670;18.260;2023-02-12T07:17:11;77.40;2227.20
49052;DHT22;34866;48.670;18.260;2023-02-12T07:19:37;77.20;2227.20
49052;DHT22;34866;48.670;18.260;2023-02-12T07:22:03;77.20;1920.00
49052;DHT22;34866;48.670;18.260;2023-02-12T07:24:29;77.60;2227.20
49052;DHT22;34866;48.670;18.260;2023-02-12T07:26:55;128.50;2227.20
49052;DHT22;34866;48.670;18.260;2023-02-12T07:29:20;128.70;2252.80
49052;DHT22;34866;48.670;18.260;2023-02-12T07:31:46;102.90;2227.20
49052;DHT22;34866;48.670;18.260;2023-02-12T07:34:11;102.40;2227.20
49052;DHT22;34866;48.670;18.260;2023-02-12T07:36:37;77.60;2227.20
49052;DHT22;34866;48.670;18.260;2023-02-12T07:39:04;77.40;2227.20
49052;DHT22;34866;48.670;18.260;2023-02-12T07:41:31;77.40;2227.20
49052;DHT22;34866;48.670;18.260;2023-02-12T07:43:59;77.60;2227.20
49052;DHT22;34866;48.670;18.260;2023-02-12T07:46:30;128.50;2252.80
49052;DHT22;34866;48.670;18.260;2023-02-12T07:48:59;179.40;691.20
49052;DHT22;34866;48.670;18.260;2023-02-12T07:51:26;230.80;6502.40
49052;DHT22;34866;48.670;18.260;2023-02-12T07:53:52;230.60;6502.40
49052;DHT22;34866;48.670;18.260;2023-02-12T07:56:21;205.70;6502.40
49052;DHT22;34866;48.670;18.260;2023-02-12T07:58:48;230.40;6502.40
49052;DHT22;34866;48.670;18.260;2023-02-12T08:01:23;180.10;6502.40
49052;DHT22;34866;48.670;18.260;2023-02-12T08:03:51;230.50;6502.40
49052;DHT22;34866;48.670;18.260;2023-02-12T08:06:20;256.10;6502.40
49052;DHT22;34866;48.670;18.260;2023-02-12T08:08:47;231.00;358.40
49052;DHT22;34866;48.670;18.260;2023-02-12T08:11:15;179.70;6502.40
49052;DHT22;34866;48.670;18.260;2023-02-12T08:13:41;179.90;6502.40
49052;DHT22;34866;48.670;18.260;2023-02-12T08:16:13;154.10;6502.40
49052;DHT22;34866;48.670;18.260;2023-02-12T08:18:41;153.80;6502.40
49052;DHT22;34866;48.670;18.260;2023-02-12T08:21:21;128.80;6502.40
49052;DHT22;34866;48.670;18.260;2023-02-12T08:23:48;128.70;6502.40
49052;DHT22;34866;48.670;18.260;2023-02-12T08:28:48;205.60;6502.40
49052;DHT22;34866;48.670;18.260;2023-02-12T08:31:23;180.00;6502.40
49052;DHT22;34866;48.670;18.260;2023-02-12T08:33:50;231.10;6502.40
49052;DHT22;34866;48.670;18.260;2023-02-12T08:36:19;282.00;6528.00
49052;DHT22;34866;48.670;18.260;2023-02-12T08:38:45;256.60;6502.40
49052;DHT22;34866;48.670;18.260;2023-02-12T08:41:13;231.20;6502.40
49052;DHT22;34866;48.670;18.260;2023-02-12T08:43:40;230.70;6502.40
49052;DHT22;34866;48.670;18.260;2023-02-12T08:46:17;179.50;6502.40
49052;DHT22;34866;48.670;18.260;2023-02-12T08:48:43;154.20;6502.40
49052;DHT22;34866;48.670;18.260;2023-02-12T08:51:14;205.60;6502.40
49052;DHT22;34866;48.670;18.260;2023-02-12T08:53:43;205.50;6502.40
49052;DHT22;34866;48.670;18.260;2023-02-12T08:56:12;256.10;6502.40
49052;DHT22;34866;48.670;18.260;2023-02-12T08:58:38;307.60;128.00
49052;DHT22;34866;48.670;18.260;2023-02-12T09:01:17;359.20;128.00
49052;DHT22;34866;48.670;18.260;2023-02-12T09:03:44;409.60;128.00
49052;DHT22;34866;48.670;18.260;2023-02-12T09:06:10;435.90;128.00
49052;DHT22;34866;48.670;18.260;2023-02-12T09:08:37;384.80;128.00
49052;DHT22;34866;48.670;18.260;2023-02-12T09:11:05;409.70;128.00
49052;DHT22;34866;48.670;18.260;2023-02-12T09:13:32;359.10;128.00
49052;DHT22;34866;48.670;18.260;2023-02-12T09:16:00;410.40;128.00
49052;DHT22;34866;48.670;18.260;2023-02-12T09:18:27;359.10;128.00
49052;DHT22;34866;48.670;18.260;2023-02-12T09:20:52;410.10;128.00
49052;DHT22;34866;48.670;18.260;2023-02-12T09:23:18;435.30;128.00
49052;DHT22;34866;48.670;18.260;2023-02-12T09:25:44;409.90;128.00
49052;DHT22;34866;48.670;18.260;2023-02-12T09:28:12;435.70;128.00
49052;DHT22;34866;48.670;18.260;2023-02-12T09:30:38;435.60;128.00
49052;DHT22;34866;48.670;18.260;2023-02-12T09:33:05;486.90;128.00
49052;DHT22;34866;48.670;18.260;2023-02-12T09:35:35;487.10;128.00
49052;DHT22;34866;48.670;18.260;2023-02-12T09:38:02;486.80;128.00
49052;DHT22;34866;48.670;18.260;2023-02-12T09:40:42;486.50;128.00
49052;DHT22;34866;48.670;18.260;2023-02-12T09:43:47;435.80;128.00
49052;DHT22;34866;48.670;18.260;2023-02-12T09:52:22;435.80;128.00
49052;DHT22;34866;48.670;18.260;2023-02-12T09:54:49;461.00;128.00
49052;DHT22;34866;48.670;18.260;2023-02-12T09:57:25;537.90;128.00
49052;DHT22;34866;48.670;18.260;2023-02-12T09:59:58;486.70;128.00
49052;DHT22;34866;48.670;18.260;2023-02-12T10:02:24;409.90;128.00
49052;DHT22;34866;48.670;18.260;2023-02-12T10:04:51;460.80;128.00
49052;DHT22;34866;48.670;18.260;2023-02-12T10:15:53;436.00;128.00
49052;DHT22;34866;48.670;18.260;2023-02-12T10:18:41;486.80;128.00
49052;DHT22;34866;48.670;18.260;2023-02-12T10:26:47;486.50;128.00
49052;DHT22;34866;48.670;18.260;2023-02-12T10:29:25;435.40;128.00
49052;DHT22;34866;48.670;18.260;2023-02-12T10:32:00;384.00;128.00
49052;DHT22;34866;48.670;18.260;2023-02-12T10:34:33;410.10;128.00
49052;DHT22;34866;48.670;18.260;2023-02-12T10:37:17;436.00;128.00
49052;DHT22;34866;48.670;18.260;2023-02-12T10:39:53;410.40;128.00
49052;DHT22;34866;48.670;18.260;2023-02-12T10:42:38;307.60;128.00
49052;DHT22;34866;48.670;18.260;2023-02-12T10:45:08;410.40;128.00
49052;DHT22;34866;48.670;18.260;2023-02-12T10:47:36;435.40;128.00
49052;DHT22;34866;48.670;18.260;2023-02-12T10:50:27;461.20;128.00
49052;DHT22;34866;48.670;18.260;2023-02-12T10:52:57;409.80;128.00
49052;DHT22;34866;48.670;18.260;2023-02-12T10:55:33;461.60;128.00
49052;DHT22;34866;48.670;18.260;2023-02-12T10:58:01;436.10;128.00
49052;DHT22;34866;48.670;18.260;2023-02-12T11:00:35;486.60;128.00
49052;DHT22;34866;48.670;18.260;2023-02-12T11:03:22;384.50;128.00
49052;DHT22;34866;48.670;18.260;2023-02-12T11:05:47;512.10;128.00
49052;DHT22;34866;48.670;18.260;2023-02-12T11:08:30;538.40;128.00
49052;DHT22;34866;48.670;18.260;2023-02-12T11:11:21;563.90;128.00
49052;DHT22;34866;48.670;18.260;2023-02-12T11:14:22;486.60;614.40
49052;DHT22;34866;48.670;18.260;2023-02-12T11:16:56;512.30;665.60
49052;DHT22;34866;48.670;18.260;2023-02-12T11:19:30;537.70;716.80
49052;DHT22;34866;48.670;18.260;2023-02-12T11:22:09;588.90;691.20
49052;DHT22;34866;48.670;18.260;2023-02-12T11:24:36;435.90;128.00
49052;DHT22;34866;48.670;18.260;2023-02-12T11:30:13;537.70;640.00
49052;DHT22;34866;48.670;18.260;2023-02-12T11:32:39;486.60;588.80
49052;DHT22;34866;48.670;18.260;2023-02-12T11:35:16;486.50;128.00
49052;DHT22;34866;48.670;18.260;2023-02-12T11:37:48;512.50;128.00
49052;DHT22;34866;48.670;18.260;2023-02-12T11:40:33;512.70;640.00
49052;DHT22;34866;48.670;18.260;2023-02-12T11:43:04;487.00;128.00
49052;DHT22;34866;48.670;18.260;2023-02-12T11:45:33;435.90;614.40
49052;DHT22;34866;48.670;18.260;2023-02-12T11:48:00;486.50;588.80
49052;DHT22;34866;48.670;18.260;2023-02-12T11:50:32;537.60;640.00
49052;DHT22;34866;48.670;18.260;2023-02-12T11:53:06;563.60;691.20
49052;DHT22;34866;48.670;18.260;2023-02-12T11:55:39;512.50;128.00
49052;DHT22;34866;48.670;18.260;2023-02-12T11:58:20;486.60;614.40
49052;DHT22;34866;48.670;18.260;2023-02-12T12:06:40;461.60;640.00
49052;DHT22;34866;48.670;18.260;2023-02-12T12:14:43;461.30;128.00
49052;DHT22;34866;48.670;18.260;2023-02-12T12:20:40;461.60;691.20
49052;DHT22;34866;48.670;18.260;2023-02-12T12:23:14;487.10;691.20
49052;DHT22;34866;48.670;18.260;2023-02-12T12:25:48;512.50;640.00
49052;DHT22;34866;48.670;18.260;2023-02-12T12:31:14;486.70;640.00
49052;DHT22;34866;48.670;18.260;2023-02-12T12:33:53;436.10;640.00
49052;DHT22;34866;48.670;18.260;2023-02-12T12:36:42;461.00;128.00
49052;DHT22;34866;48.670;18.260;2023-02-12T12:42:12;435.90;128.00
49052;DHT22;34866;48.670;18.260;2023-02-12T12:45:09;384.60;512.00
49052;DHT22;34866;48.670;18.260;2023-02-12T12:56:18;409.70;588.80
49052;DHT22;34866;48.670;18.260;2023-02-12T12:58:59;384.50;128.00
49052;DHT22;34866;48.670;18.260;2023-02-12T13:07:17;256.60;6502.40
49052;DHT22;34866;48.670;18.260;2023-02-12T13:15:25;282.20;6528.00
49052;DHT22;34866;48.670;18.260;2023-02-12T13:20:29;307.80;128.00
49052;DHT22;34866;48.670;18.260;2023-02-12T13:23:03;307.90;128.00
49052;DHT22;34866;48.670;18.260;2023-02-12T13:28:36;281.60;6528.00
49052;DHT22;34866;48.670;18.260;2023-02-12T13:31:06;256.20;6502.40
49052;DHT22;34866;48.670;18.260;2023-02-12T13:33:42;230.50;6502.40
49052;DHT22;34866;48.670;18.260;2023-02-12T13:36:11;205.60;6502.40
49052;DHT22;34866;48.670;18.260;2023-02-12T13:38:41;205.70;6502.40
49052;DHT22;34866;48.670;18.260;2023-02-12T13:41:09;230.40;6502.40
49052;DHT22;34866;48.670;18.260;2023-02-12T13:51:52;205.40;6502.40
49052;DHT22;34866;48.670;18.260;2023-02-12T13:54:28;205.40;6502.40
49052;DHT22;34866;48.670;18.260;2023-02-12T13:56:59;205.10;6502.40
49052;DHT22;34866;48.670;18.260;2023-02-12T14:04:29;204.80;6502.40
49052;DHT22;34866;48.670;18.260;2023-02-12T14:07:04;205.00;6502.40
49052;DHT22;34866;48.670;18.260;2023-02-12T14:09:38;205.20;6502.40
49052;DHT22;34866;48.670;18.260;2023-02-12T14:14:43;204.80;6502.40
49052;DHT22;34866;48.670;18.260;2023-02-12T14:30:34;180.10;6502.40
49052;DHT22;34866;48.670;18.260;2023-02-12T14:35:32;180.00;6502.40
49052;DHT22;34866;48.670;18.260;2023-02-12T14:40:41;179.40;6502.40
49052;DHT22;34866;48.670;18.260;2023-02-12T14:43:36;179.40;6502.40
49052;DHT22;34866;48.670;18.260;2023-02-12T14:48:56;154.50;6502.40
49052;DHT22;34866;48.670;18.260;2023-02-12T14:51:30;154.40;6502.40
49052;DHT22;34866;48.670;18.260;2023-02-12T14:53:58;154.50;6502.40
49052;DHT22;34866;48.670;18.260;2023-02-12T14:56:25;179.80;6502.40
49052;DHT22;34866;48.670;18.260;2023-02-12T14:58:52;256.20;6502.40
49052;DHT22;34866;48.670;18.260;2023-02-12T15:01:32;282.30;6528.00
49052;DHT22;34866;48.670;18.260;2023-02-12T15:04:11;281.80;6528.00
49052;DHT22;34866;48.670;18.260;2023-02-12T15:06:49;282.00;6528.00
49052;DHT22;34866;48.670;18.260;2023-02-12T15:09:18;282.30;6528.00
49052;DHT22;34866;48.670;18.260;2023-02-12T15:11:53;307.80;128.00
49052;DHT22;34866;48.670;18.260;2023-02-12T15:14:42;282.50;6528.00
49052;DHT22;34866;48.670;18.260;2023-02-12T15:17:27;231.00;6502.40
49052;DHT22;34866;48.670;18.260;2023-02-12T15:20:22;179.70;6502.40
49052;DHT22;34866;48.670;18.260;2023-02-12T15:22:49;179.40;6502.40
49052;DHT22;34866;48.670;18.260;2023-02-12T15:27:53;256.50;6502.40
49052;DHT22;34866;48.670;18.260;2023-02-12T15:30:27;256.30;6502.40
49052;DHT22;34866;48.670;18.260;2023-02-12T15:32:55;231.20;6502.40
49052;DHT22;34866;48.670;18.260;2023-02-12T15:35:29;230.50;6502.40
49052;DHT22;34866;48.670;18.260;2023-02-12T15:37:56;179.80;6502.40
49052;DHT22;34866;48.670;18.260;2023-02-12T15:40:24;153.60;6502.40
49052;DHT22;34866;48.670;18.260;2023-02-12T15:43:02;128.60;6502.40
49052;DHT22;34866;48.670;18.260;2023-02-12T15:45:30;128.30;6528.00
49052;DHT22;34866;48.670;18.260;2023-02-12T15:50:34;103.30;6476.80
49052;DHT22;34866;48.670;18.260;2023-02-12T15:53:00;103.10;6476.80
49052;DHT22;34866;48.670;18.260;2023-02-12T15:55:35;103.00;6476.80
49052;DHT22;34866;48.670;18.260;2023-02-12T15:58:02;102.80;6476.80
49052;DHT22;34866;48.670;18.260;2023-02-12T16:00:40;102.70;6476.80
49052;DHT22;34866;48.670;18.260;2023-02-12T16:03:24;102.60;6476.80
49052;DHT22;34866;48.670;18.260;2023-02-12T16:05:51;102.60;6476.80
49052;DHT22;34866;48.670;18.260;2023-02-12T16:08:21;77.70;6476.80
49052;DHT22;34866;48.670;18.260;2023-02-12T16:10:48;77.60;6476.80
49052;DHT22;34866;48.670;18.260;2023-02-12T16:13:20;77.50;6476.80
49052;DHT22;34866;48.670;18.260;2023-02-12T16:16:07;77.40;6476.80
49052;DHT22;34866;48.670;18.260;2023-02-12T16:18:40;77.30;6476.80
49052;DHT22;34866;48.670;18.260;2023-02-12T16:21:21;77.30;6476.80
49052;DHT22;34866;48.670;18.260;2023-02-12T16:23:49;77.20;6476.80
49052;DHT22;34866;48.670;18.260;2023-02-12T16:26:23;77.00;6476.80
49052;DHT22;34866;48.670;18.260;2023-02-12T16:28:52;76.90;6476.80
49052;DHT22;34866;48.670;18.260;2023-02-12T16:31:19;77.00;6476.80
49052;DHT22;34866;48.670;18.260;2023-02-12T16:33:55;76.80;6476.80
49052;DHT22;34866;48.670;18.260;2023-02-12T16:38:54;52.10;6476.80
49052;DHT22;34866;48.670;18.260;2023-02-12T16:41:54;52.00;6476.80
49052;DHT22;34866;48.670;18.260;2023-02-12T16:44:23;52.00;6476.80
49052;DHT22;34866;48.670;18.260;2023-02-12T16:46:53;52.00;6476.80
49052;DHT22;34866;48.670;18.260;2023-02-12T16:49:22;51.90;6476.80
49052;DHT22;34866;48.670;18.260;2023-02-12T16:51:49;51.90;6476.80
49052;DHT22;34866;48.670;18.260;2023-02-12T16:54:34;52.00;6476.80
49052;DHT22;34866;48.670;18.260;2023-02-12T16:57:00;52.00;6476.80
49052;DHT22;34866;48.670;18.260;2023-02-12T16:59:27;52.10;6476.80
49052;DHT22;34866;48.670;18.260;2023-02-12T17:02:01;52.00;6476.80
49052;DHT22;34866;48.670;18.260;2023-02-12T17:04:28;52.00;6476.80
49052;DHT22;34866;48.670;18.260;2023-02-12T17:06:54;51.80;6476.80
49052;DHT22;34866;48.670;18.260;2023-02-12T17:09:23;51.60;6476.80
49052;DHT22;34866;48.670;18.260;2023-02-12T17:11:48;51.50;6476.80
49052;DHT22;34866;48.670;18.260;2023-02-12T17:14:17;51.40;6476.80
49052;DHT22;34866;48.670;18.260;2023-02-12T17:16:44;51.40;128.00
49052;DHT22;34866;48.670;18.260;2023-02-12T17:19:10;51.30;6476.80
49052;DHT22;34866;48.670;18.260;2023-02-12T17:21:38;51.30;6476.80
49052;DHT22;34866;48.670;18.260;2023-02-12T17:24:13;51.30;6476.80
49052;DHT22;34866;48.670;18.260;2023-02-12T17:26:53;51.40;6476.80
49052;DHT22;34866;48.670;18.260;2023-02-12T17:29:20;26.50;6451.20
49052;DHT22;34866;48.670;18.260;2023-02-12T17:31:47;26.40;128.00
49052;DHT22;34866;48.670;18.260;2023-02-12T17:34:13;26.40;281.60
49052;DHT22;34866;48.670;18.260;2023-02-12T17:36:39;26.40;435.20
49052;DHT22;34866;48.670;18.260;2023-02-12T17:39:07;26.20;588.80
49052;DHT22;34866;48.670;18.260;2023-02-12T17:41:33;26.10;460.80
49052;DHT22;34866;48.670;18.260;2023-02-12T17:43:59;26.00;716.80
49052;DHT22;34866;48.670;18.260;2023-02-12T17:46:26;25.90;921.60
49052;DHT22;34866;48.670;18.260;2023-02-12T17:48:54;25.90;1356.80
49052;DHT22;34866;48.670;18.260;2023-02-12T17:51:21;26.20;1177.60
49052;DHT22;34866;48.670;18.260;2023-02-12T17:53:47;25.80;1024.00
49052;DHT22;34866;48.670;18.260;2023-02-12T17:56:16;25.60;1536.00